createdAt,value
2023-03-24T00:00:18.640Z,4.32
2023-03-24T00:03:04.983Z,5.95
2023-03-24T00:05:58.564Z,3.55
2023-03-24T00:08:47.785Z,7.80
2023-03-24T00:11:34.577Z,5.47
2023-03-24T00:14:21.628Z,7.57
2023-03-24T00:17:12.649Z,8.52
2023-03-24T00:19:58.213Z,8.52
2023-03-24T00:22:49.705Z,4.75
2023-03-24T00:25:40.113Z,4.72
2023-03-24T00:28:25.986Z,4.53
2023-03-24T00:31:15.256Z,5.97
2023-03-24T00:34:02.857Z,6.68
2023-03-24T00:36:49.160Z,6.50
2023-03-24T00:39:35.206Z,5.25
2023-03-24T00:42:22.202Z,5.63
2023-03-24T00:45:09.453Z,4.10
2023-03-24T00:47:57.901Z,4.22
2023-03-24T00:50:45.923Z,7.55
2023-03-24T00:53:31.971Z,5.80
2023-03-24T00:56:17.669Z,8.48
2023-03-24T00:59:04.288Z,5.22
2023-03-24T01:01:50.226Z,4.57
2023-03-24T01:04:37.791Z,6.63
2023-03-24T01:07:24.733Z,8.07
2023-03-24T01:10:13.069Z,6.70
2023-03-24T01:13:00.237Z,4.72
2023-03-24T01:15:46.075Z,6.43
2023-03-24T01:18:31.622Z,4.82
2023-03-24T01:21:18.795Z,4.13
2023-03-24T01:24:05.931Z,6.30
2023-03-24T01:26:52.345Z,6.32
2023-03-24T01:29:38.312Z,3.53
2023-03-24T01:32:24.377Z,5.75
2023-03-24T01:35:11.285Z,6.30
2023-03-24T01:37:59.228Z,4.68
2023-03-24T01:40:47.253Z,3.80
2023-03-24T01:43:35.425Z,4.15
2023-03-24T01:46:22.739Z,6.05
2023-03-24T01:49:10.227Z,6.35
2023-03-24T01:51:59.727Z,5.95
2023-03-24T01:54:51.079Z,3.28
2023-03-24T01:57:39.932Z,4.28
2023-03-24T02:00:26.618Z,3.30
2023-03-24T02:03:34.806Z,3.97
2023-03-24T02:06:23.474Z,3.63
2023-03-24T02:09:10.439Z,2.95
2023-03-24T02:11:57.998Z,5.40
2023-03-24T02:14:43.694Z,3.08
2023-03-24T02:17:51.843Z,4.93
2023-03-24T02:21:01.196Z,4.28
2023-03-24T02:24:36.731Z,5.68
2023-03-24T02:27:48.840Z,4.50
2023-03-24T02:31:00.008Z,5.88
2023-03-24T02:34:22.201Z,5.38
2023-03-24T02:37:32.663Z,6.43
2023-03-24T02:40:31.399Z,5.22
2023-03-24T02:43:32.570Z,4.53
2023-03-24T02:46:25.306Z,3.40
2023-03-24T02:52:07.955Z,5.95
2023-03-24T02:55:01.542Z,2.97
2023-03-24T02:57:53.108Z,1.63
2023-03-24T03:01:04.637Z,3.22
2023-03-24T03:04:12.524Z,1.75
2023-03-24T03:07:00.985Z,1.50
2023-03-24T03:09:51.915Z,1.55
2023-03-24T03:12:40.184Z,1.77
2023-03-24T03:15:32.535Z,3.35
2023-03-24T03:18:24.064Z,3.17
2023-03-24T03:24:02.120Z,1.42
2023-03-24T03:26:50.030Z,3.05
2023-03-24T03:29:39.977Z,3.30
2023-03-24T03:32:29.900Z,5.03
2023-03-24T03:35:19.801Z,2.22
2023-03-24T03:38:15.703Z,6.40
2023-03-24T03:41:04.622Z,4.22
2023-03-24T03:43:54.769Z,6.30
2023-03-24T03:46:41.030Z,5.63
2023-03-24T03:49:37.656Z,4.70
2023-03-24T03:52:23.377Z,5.82
2023-03-24T03:55:11.927Z,4.40
2023-03-24T03:57:58.793Z,5.28
2023-03-24T04:00:55.823Z,3.17
2023-03-24T04:04:20.258Z,8.52
2023-03-24T04:07:40.015Z,5.30
2023-03-24T04:11:33.063Z,5.68
2023-03-24T04:14:41.801Z,8.57
2023-03-24T04:18:03.095Z,7.57
2023-03-24T04:21:18.455Z,5.90
2023-03-24T04:24:27.502Z,11.45
2023-03-24T04:30:16.853Z,4.72
2023-03-24T04:33:07.115Z,10.40
2023-03-24T04:36:01.705Z,7.47
2023-03-24T04:38:59.456Z,11.50
2023-03-24T04:41:55.317Z,10.98
2023-03-24T04:44:45.533Z,11.75
2023-03-24T04:47:54.451Z,13.68
2023-03-24T04:50:57.086Z,15.02
2023-03-24T04:53:44.633Z,15.30
2023-03-24T04:56:37.134Z,14.27
2023-03-24T04:59:27.151Z,13.27
2023-03-24T05:02:13.814Z,12.05
2023-03-24T05:05:11.064Z,10.35
2023-03-24T05:08:02.565Z,19.27
2023-03-24T05:10:48.454Z,10.60
2023-03-24T05:13:34.382Z,18.08
2023-03-24T05:16:23.106Z,16.05
2023-03-24T05:19:17.187Z,12.60
2023-03-24T05:22:03.286Z,27.67
2023-03-24T05:24:49.737Z,18.98
2023-03-24T05:27:35.486Z,18.15
2023-03-24T05:30:32.600Z,14.13
2023-03-24T05:33:29.075Z,13.93
2023-03-24T05:36:16.930Z,14.30
2023-03-24T05:39:09.433Z,9.25
2023-03-24T05:42:09.158Z,13.70
2023-03-24T05:44:54.772Z,14.80
2023-03-24T05:47:47.175Z,24.02
2023-03-24T05:50:35.313Z,16.27
2023-03-24T05:53:20.991Z,16.73
2023-03-24T05:56:35.655Z,15.68
2023-03-24T05:59:30.937Z,10.63
2023-03-24T06:02:42.800Z,17.38
2023-03-24T06:05:45.901Z,12.82
2023-03-24T06:08:34.100Z,15.65
2023-03-24T06:11:21.286Z,13.00
2023-03-24T06:14:14.805Z,8.60
2023-03-24T06:17:17.816Z,12.10
2023-03-24T06:20:13.936Z,11.20
2023-03-24T06:23:25.983Z,11.85
2023-03-24T06:26:22.131Z,11.50
2023-03-24T06:29:18.076Z,13.52
2023-03-24T06:32:05.627Z,11.32
2023-03-24T06:34:57.171Z,11.07
2023-03-24T06:37:59.681Z,15.70
2023-03-24T06:40:46.950Z,15.13
2023-03-24T06:43:33.587Z,15.98
2023-03-24T06:46:19.248Z,12.15
2023-03-24T06:49:06.190Z,14.30
2023-03-24T06:51:52.340Z,14.63
2023-03-24T06:54:40.548Z,15.13
2023-03-24T06:57:29.260Z,11.13
2023-03-24T07:00:34.776Z,15.10
2023-03-24T07:03:42.796Z,12.30
2023-03-24T07:07:02.075Z,11.02
2023-03-24T07:09:56.615Z,17.00
2023-03-24T07:12:43.778Z,15.10
2023-03-24T07:15:29.665Z,8.80
2023-03-24T07:18:16.088Z,10.48
2023-03-24T07:21:04.211Z,10.43
2023-03-24T07:23:51.068Z,15.20
2023-03-24T07:26:40.538Z,14.95
2023-03-24T07:29:34.374Z,8.77
2023-03-24T07:32:39.200Z,11.30
2023-03-24T07:35:25.093Z,16.05
2023-03-24T07:38:10.898Z,14.77
2023-03-24T07:40:58.400Z,13.20
2023-03-24T07:43:44.932Z,13.55
2023-03-24T07:46:53.442Z,9.23
2023-03-24T07:49:41.767Z,9.70
2023-03-24T07:52:30.323Z,9.07
2023-03-24T07:55:16.801Z,11.52
2023-03-24T07:58:13.341Z,9.63
2023-03-24T08:01:07.384Z,11.32
2023-03-24T08:04:00.739Z,13.18
2023-03-24T08:07:19.538Z,12.68
2023-03-24T08:10:06.648Z,11.77
2023-03-24T08:12:52.865Z,11.10
2023-03-24T08:15:38.757Z,8.80
2023-03-24T08:18:25.358Z,10.93
2023-03-24T08:21:12.162Z,12.25
2023-03-24T08:23:57.720Z,13.13
2023-03-24T08:26:46.620Z,10.13
2023-03-24T08:29:34.613Z,12.43
2023-03-24T08:32:20.422Z,8.68
2023-03-24T08:35:06.616Z,11.55
2023-03-24T08:37:54.017Z,11.23
2023-03-24T08:40:41.813Z,11.43
2023-03-24T08:43:28.363Z,12.80
2023-03-24T08:46:15.540Z,15.27
2023-03-24T08:49:01.104Z,8.90
2023-03-24T08:51:47.316Z,13.35
2023-03-24T08:54:34.493Z,9.05
2023-03-24T08:57:21.619Z,10.20
2023-03-24T09:00:14.843Z,11.45
2023-03-24T09:03:01.188Z,8.68
2023-03-24T09:05:47.825Z,8.68
2023-03-24T09:08:33.752Z,10.55
2023-03-24T09:11:21.982Z,9.73
2023-03-24T09:14:07.835Z,15.98
2023-03-24T09:16:53.134Z,12.40
2023-03-24T09:19:39.240Z,12.20
2023-03-24T09:22:25.080Z,10.77
2023-03-24T09:25:13.397Z,8.30
2023-03-24T09:28:01.742Z,7.13
2023-03-24T09:30:48.580Z,5.20
2023-03-24T09:33:35.008Z,10.82
2023-03-24T09:36:21.136Z,8.43
2023-03-24T09:39:07.037Z,9.10
2023-03-24T09:41:52.537Z,6.55
2023-03-24T09:44:43.309Z,12.07
2023-03-24T09:50:23.161Z,8.10
2023-03-24T09:53:19.725Z,7.88
2023-03-24T09:56:12.835Z,7.05
2023-03-24T09:59:05.357Z,8.73
2023-03-24T10:01:52.550Z,11.05
2023-03-24T10:04:38.386Z,7.55
2023-03-24T10:07:29.672Z,11.48
2023-03-24T10:10:23.197Z,6.80
2023-03-24T10:13:19.533Z,9.27
2023-03-24T10:16:11.223Z,9.23
2023-03-24T10:19:10.991Z,5.75
2023-03-24T10:22:04.133Z,8.00
2023-03-24T10:24:57.323Z,7.47
2023-03-24T10:27:48.888Z,6.25
2023-03-24T10:30:39.555Z,10.57
2023-03-24T10:33:25.181Z,7.97
2023-03-24T10:36:18.375Z,11.45
2023-03-24T10:39:18.323Z,9.05
2023-03-24T10:42:07.285Z,7.85
2023-03-24T10:44:53.951Z,8.52
2023-03-24T10:47:40.588Z,8.45
2023-03-24T10:50:29.256Z,7.80
2023-03-24T10:53:20.711Z,8.00
2023-03-24T10:56:07.190Z,10.27
2023-03-24T10:58:53.023Z,8.73
2023-03-24T11:01:38.962Z,7.53
2023-03-24T11:04:25.330Z,8.93
2023-03-24T11:07:36.578Z,7.00
2023-03-24T11:10:26.643Z,7.30
2023-03-24T11:13:18.984Z,6.55
2023-03-24T11:16:10.622Z,8.57
2023-03-24T11:18:59.461Z,3.58
2023-03-24T11:21:45.779Z,4.70
2023-03-24T11:24:36.524Z,5.70
2023-03-24T11:27:23.793Z,4.30
2023-03-24T11:30:13.518Z,3.40
2023-03-24T11:32:59.753Z,3.13
2023-03-24T11:35:56.003Z,4.15
2023-03-24T11:38:59.343Z,5.90
2023-03-24T11:41:52.849Z,5.30
2023-03-24T11:44:48.929Z,5.90
2023-03-24T11:47:38.547Z,6.13
2023-03-24T11:50:28.965Z,3.60
2023-03-24T11:53:20.020Z,5.78
2023-03-24T11:56:12.889Z,6.40
2023-03-24T11:59:07.821Z,7.30
2023-03-24T12:02:01.375Z,8.45
2023-03-24T12:05:03.057Z,8.93
2023-03-24T12:08:04.072Z,8.45
2023-03-24T12:11:03.937Z,4.38
2023-03-24T12:13:50.602Z,3.35
2023-03-24T12:16:51.842Z,6.57
2023-03-24T12:22:41.370Z,8.75
2023-03-24T12:25:42.657Z,3.83
2023-03-24T12:31:55.049Z,5.25
2023-03-24T12:35:09.496Z,3.33
2023-03-24T12:38:06.018Z,2.80
2023-03-24T12:41:11.283Z,6.60
2023-03-24T12:44:16.484Z,4.60
2023-03-24T12:47:12.123Z,6.93
2023-03-24T12:50:17.499Z,8.52
2023-03-24T12:53:16.287Z,7.65
2023-03-24T12:56:10.322Z,10.43
2023-03-24T12:58:59.717Z,6.07
2023-03-24T13:01:50.164Z,6.07
2023-03-24T13:04:39.812Z,9.38
2023-03-24T13:07:28.701Z,10.65
2023-03-24T13:10:20.333Z,7.43
2023-03-24T13:13:12.840Z,6.88
2023-03-24T13:16:01.875Z,5.90
2023-03-24T13:18:52.489Z,5.82
2023-03-24T13:21:38.515Z,6.57
2023-03-24T13:24:26.265Z,4.78
2023-03-24T13:27:20.591Z,5.70
2023-03-24T13:30:31.325Z,7.00
2023-03-24T13:33:21.223Z,4.68
2023-03-24T13:36:22.324Z,7.93
2023-03-24T13:39:14.366Z,3.05
2023-03-24T13:42:02.983Z,6.80
2023-03-24T13:44:49.418Z,11.20
2023-03-24T13:47:49.716Z,6.43
2023-03-24T13:50:39.365Z,7.68
2023-03-24T13:53:36.877Z,9.45
2023-03-24T13:56:26.131Z,4.95
2023-03-24T13:59:28.317Z,4.28
2023-03-24T14:02:39.954Z,5.35
2023-03-24T14:05:48.261Z,3.53
2023-03-24T14:08:43.809Z,4.57
2023-03-24T14:11:45.509Z,5.05
2023-03-24T14:14:34.730Z,6.05
2023-03-24T14:17:22.101Z,5.05
2023-03-24T14:20:23.460Z,4.97
2023-03-24T14:26:07.737Z,4.07
2023-03-24T14:28:54.460Z,3.83
2023-03-24T14:31:41.736Z,5.80
2023-03-24T14:34:28.693Z,2.10
2023-03-24T14:37:16.529Z,5.10
2023-03-24T14:40:02.485Z,4.07
2023-03-24T14:42:55.381Z,1.50
2023-03-24T14:46:00.325Z,2.75
2023-03-24T14:48:57.369Z,2.15
2023-03-24T14:51:45.898Z,2.60
2023-03-24T14:54:37.827Z,3.15
2023-03-24T14:57:26.736Z,1.25
2023-03-24T15:00:21.471Z,1.30
2023-03-24T15:03:18.884Z,2.47
2023-03-24T15:06:12.881Z,2.05
2023-03-24T15:09:01.350Z,3.40
2023-03-24T15:11:48.297Z,2.80
2023-03-24T15:14:36.815Z,3.70
2023-03-24T15:17:23.889Z,4.18
2023-03-24T15:20:22.234Z,3.45
2023-03-24T15:23:16.684Z,3.58
2023-03-24T15:26:02.709Z,2.50
2023-03-24T15:28:53.967Z,2.70
2023-03-24T15:31:40.719Z,5.28
2023-03-24T15:34:28.386Z,3.83
2023-03-24T15:37:21.356Z,5.80
2023-03-24T15:40:33.734Z,4.43
2023-03-24T15:43:21.741Z,4.35
2023-03-24T15:46:26.318Z,4.97
2023-03-24T15:49:21.530Z,4.35
2023-03-24T15:52:29.613Z,8.10
2023-03-24T15:55:24.099Z,5.80
2023-03-24T15:58:26.588Z,6.78
2023-03-24T16:01:14.489Z,5.80
2023-03-24T16:04:02.244Z,6.50
2023-03-24T16:06:51.592Z,6.90
2023-03-24T16:09:40.936Z,4.43
2023-03-24T16:12:26.651Z,6.05
2023-03-24T16:15:14.633Z,9.35
2023-03-24T16:18:00.897Z,9.63
2023-03-24T16:20:46.609Z,5.82
2023-03-24T16:23:32.625Z,9.23
2023-03-24T16:26:19.530Z,7.35
2023-03-24T16:29:17.514Z,8.13
2023-03-24T16:32:05.129Z,7.80
2023-03-24T16:34:50.940Z,3.95
2023-03-24T16:37:36.503Z,10.68
2023-03-24T16:40:31.146Z,6.07
2023-03-24T16:43:16.946Z,4.70
2023-03-24T16:46:05.544Z,6.22
2023-03-24T16:48:54.083Z,4.30
2023-03-24T16:51:39.887Z,12.82
2023-03-24T16:54:25.883Z,4.78
2023-03-24T16:57:11.929Z,6.25
2023-03-24T17:00:01.127Z,7.50
2023-03-24T17:02:48.490Z,8.90
2023-03-24T17:05:41.256Z,3.30
2023-03-24T17:08:26.768Z,6.20
2023-03-24T17:11:12.724Z,5.50
2023-03-24T17:14:04.840Z,8.55
2023-03-24T17:16:52.683Z,7.60
2023-03-24T17:19:39.247Z,5.28
2023-03-24T17:22:26.661Z,6.78
2023-03-24T17:25:13.976Z,7.50
2023-03-24T17:27:59.659Z,7.95
2023-03-24T17:30:45.778Z,4.68
2023-03-24T17:33:31.690Z,4.60
2023-03-24T17:36:17.534Z,4.18
2023-03-24T17:39:05.332Z,8.40
2023-03-24T17:41:51.153Z,7.13
2023-03-24T17:44:37.823Z,7.57
2023-03-24T17:47:23.676Z,8.57
2023-03-24T17:50:10.298Z,7.28
2023-03-24T17:52:55.965Z,10.23
2023-03-24T17:55:45.573Z,8.15
2023-03-24T17:58:33.004Z,8.02
2023-03-24T18:01:21.218Z,5.07
2023-03-24T18:04:07.120Z,5.88
2023-03-24T18:06:53.004Z,8.10
2023-03-24T18:09:39.218Z,6.28
2023-03-24T18:12:27.465Z,6.93
2023-03-24T18:15:13.193Z,8.57
2023-03-24T18:17:58.867Z,9.65
2023-03-24T18:20:44.860Z,9.73
2023-03-24T18:23:31.908Z,7.97
2023-03-24T18:26:18.191Z,2.42
2023-03-24T18:29:05.859Z,5.10
2023-03-24T18:31:51.806Z,8.18
2023-03-24T18:34:38.914Z,5.25
2023-03-24T18:37:25.106Z,3.80
2023-03-24T18:40:12.141Z,6.70
2023-03-24T18:42:57.817Z,6.25
2023-03-24T18:45:45.305Z,5.40
2023-03-24T18:48:31.222Z,7.20
2023-03-24T18:51:17.070Z,5.70
2023-03-24T18:54:03.225Z,7.22
2023-03-24T18:56:49.257Z,5.60
2023-03-24T18:59:34.863Z,8.85
2023-03-24T19:02:22.222Z,5.82
2023-03-24T19:05:10.114Z,6.93
2023-03-24T19:07:55.729Z,4.55
2023-03-24T19:10:43.209Z,6.25
2023-03-24T19:13:29.012Z,4.57
2023-03-24T19:16:15.327Z,7.75
2023-03-24T19:19:02.688Z,5.43
2023-03-24T19:21:49.207Z,9.82
2023-03-24T19:24:34.861Z,6.07
2023-03-24T19:27:21.213Z,4.85
2023-03-24T19:30:09.024Z,3.78
2023-03-24T19:32:55.233Z,4.90
2023-03-24T19:35:42.549Z,4.57
2023-03-24T19:38:29.157Z,4.05
2023-03-24T19:41:15.907Z,2.55
2023-03-24T19:44:01.800Z,5.45
2023-03-24T19:46:47.398Z,3.53
2023-03-24T19:49:33.387Z,7.25
2023-03-24T19:52:20.713Z,4.78
2023-03-24T19:55:06.977Z,4.97
2023-03-24T19:57:52.980Z,8.55
2023-03-24T20:00:40.193Z,3.47
2023-03-24T20:03:25.903Z,5.00
2023-03-24T20:06:11.966Z,4.05
2023-03-24T20:08:59.158Z,5.82
2023-03-24T20:11:44.915Z,4.97
2023-03-24T20:14:33.787Z,6.53
2023-03-24T20:17:21.983Z,5.03
2023-03-24T20:20:10.369Z,6.07
2023-03-24T20:22:57.309Z,8.25
2023-03-24T20:25:44.592Z,5.60
2023-03-24T20:28:30.809Z,5.00
2023-03-24T20:31:17.421Z,7.55
2023-03-24T20:34:03.679Z,5.55
2023-03-24T20:36:49.625Z,4.05
2023-03-24T20:39:35.672Z,4.85
2023-03-24T20:42:24.506Z,5.90
2023-03-24T20:45:11.615Z,3.92
2023-03-24T20:47:57.472Z,4.25
2023-03-24T20:50:43.616Z,10.00
2023-03-24T20:53:32.721Z,5.45
2023-03-24T20:56:19.048Z,4.65
2023-03-24T20:59:07.028Z,6.70
2023-03-24T21:01:52.824Z,7.85
2023-03-24T21:04:38.741Z,6.35
2023-03-24T21:07:24.771Z,6.00
2023-03-24T21:10:11.445Z,6.45
2023-03-24T21:12:57.147Z,7.25
2023-03-24T21:15:45.435Z,6.45
2023-03-24T21:18:32.422Z,8.00
2023-03-24T21:21:18.054Z,7.05
2023-03-24T21:24:04.402Z,8.18
2023-03-24T21:26:51.148Z,4.10
2023-03-24T21:29:36.693Z,5.32
2023-03-24T21:32:23.992Z,7.22
2023-03-24T21:35:11.464Z,6.03
2023-03-24T21:37:57.412Z,7.85
2023-03-24T21:40:43.165Z,3.05
2023-03-24T21:43:30.384Z,6.35
2023-03-24T21:46:20.549Z,4.35
2023-03-24T21:49:11.047Z,4.25
2023-03-24T21:51:57.284Z,7.20
2023-03-24T21:54:43.560Z,7.45
2023-03-24T21:57:29.173Z,3.60
2023-03-24T22:00:16.925Z,9.52
2023-03-24T22:03:03.688Z,3.38
2023-03-24T22:05:51.638Z,3.92
2023-03-24T22:08:38.995Z,9.20
2023-03-24T22:11:25.058Z,4.18
2023-03-24T22:14:12.432Z,4.82
2023-03-24T22:16:58.663Z,3.45
2023-03-24T22:19:44.585Z,5.72
2023-03-24T22:22:32.702Z,8.52
2023-03-24T22:25:19.437Z,3.47
2023-03-24T22:28:05.307Z,3.90
2023-03-24T22:30:51.069Z,6.85
2023-03-24T22:33:37.625Z,4.45
2023-03-24T22:36:23.240Z,5.80
2023-03-24T22:39:10.348Z,4.15
2023-03-24T22:41:56.983Z,6.00
2023-03-24T22:44:42.667Z,3.72
2023-03-24T22:47:29.174Z,6.25
2023-03-24T22:50:15.272Z,4.85
2023-03-24T22:53:01.396Z,2.90
2023-03-24T22:55:48.798Z,6.00
2023-03-24T22:58:35.714Z,4.22
2023-03-24T23:01:21.475Z,5.57
2023-03-24T23:04:07.529Z,9.27
2023-03-24T23:06:55.089Z,5.50
2023-03-24T23:09:43.082Z,4.78
2023-03-24T23:12:30.292Z,7.32
2023-03-24T23:15:17.977Z,5.68
2023-03-24T23:18:04.068Z,7.40
2023-03-24T23:20:50.012Z,8.10
2023-03-24T23:23:36.427Z,8.57
2023-03-24T23:26:25.443Z,8.13
2023-03-24T23:29:13.994Z,6.60
2023-03-24T23:31:59.604Z,10.05
2023-03-24T23:34:48.659Z,9.55
2023-03-24T23:37:35.458Z,5.00
2023-03-24T23:40:21.393Z,3.90
2023-03-24T23:43:07.242Z,6.80
2023-03-24T23:45:56.432Z,5.50
2023-03-24T23:48:42.158Z,7.47
2023-03-24T23:51:28.623Z,9.77
2023-03-24T23:54:14.155Z,7.25
2023-03-24T23:57:00.508Z,7.20
2023-03-24T23:59:49.465Z,10.25
